createdAt,value
2023-05-19T00:00:30.978Z,0
2023-05-19T00:02:57.073Z,0
2023-05-19T00:05:23.220Z,0
2023-05-19T00:07:49.252Z,0
2023-05-19T00:10:15.384Z,0
2023-05-19T00:12:41.441Z,0
2023-05-19T00:15:07.548Z,0
2023-05-19T00:17:33.643Z,0
2023-05-19T00:19:59.726Z,0
2023-05-19T00:22:25.824Z,0
2023-05-19T00:24:53.401Z,0
2023-05-19T00:32:09.239Z,0
2023-05-19T00:34:35.363Z,0
2023-05-19T00:37:01.455Z,0
2023-05-19T00:39:27.502Z,0
2023-05-19T00:41:53.598Z,0
2023-05-19T00:44:19.747Z,0
2023-05-19T00:46:45.788Z,0
2023-05-19T00:49:11.970Z,0
2023-05-19T00:51:38.032Z,0
2023-05-19T00:54:04.077Z,0
2023-05-19T00:56:30.187Z,0
2023-05-19T00:58:55.306Z,0
2023-05-19T01:01:21.381Z,0
2023-05-19T01:03:47.480Z,0
2023-05-19T01:06:13.607Z,0
2023-05-19T01:08:39.675Z,0
2023-05-19T01:11:05.768Z,0
2023-05-19T01:13:31.863Z,0
2023-05-19T01:15:58.023Z,0
2023-05-19T01:18:24.055Z,0
2023-05-19T01:20:50.287Z,0
2023-05-19T01:23:16.229Z,0
2023-05-19T01:25:42.323Z,0
2023-05-19T01:28:07.470Z,0
2023-05-19T01:30:33.549Z,0
2023-05-19T01:32:59.651Z,0
2023-05-19T01:35:25.739Z,0
2023-05-19T01:37:51.831Z,0
2023-05-19T01:40:17.926Z,0
2023-05-19T01:42:44.030Z,0
2023-05-19T01:45:10.137Z,0
2023-05-19T01:47:36.231Z,0
2023-05-19T01:50:02.302Z,0
2023-05-19T01:52:28.396Z,0
2023-05-19T01:54:54.495Z,0
2023-05-19T01:57:20.605Z,0
2023-05-19T01:59:45.702Z,0
2023-05-19T02:02:11.802Z,0
2023-05-19T02:04:37.898Z,0
2023-05-19T02:07:03.985Z,0
2023-05-19T02:09:30.074Z,0
2023-05-19T02:11:56.188Z,0
2023-05-19T02:14:22.269Z,0
2023-05-19T02:16:48.371Z,0
2023-05-19T02:19:14.473Z,0
2023-05-19T02:21:40.560Z,0
2023-05-19T02:24:06.662Z,0
2023-05-19T02:26:32.744Z,0
2023-05-19T02:28:58.840Z,0
2023-05-19T02:31:23.961Z,0
2023-05-19T02:33:50.061Z,0
2023-05-19T02:36:16.145Z,0
2023-05-19T02:38:42.247Z,0
2023-05-19T02:41:08.387Z,0
2023-05-19T02:43:34.423Z,0
2023-05-19T02:46:00.507Z,0
2023-05-19T02:48:26.612Z,0
2023-05-19T02:50:52.716Z,0
2023-05-19T02:53:18.803Z,0
2023-05-19T02:55:44.886Z,0
2023-05-19T02:58:11.003Z,0
2023-05-19T03:00:37.221Z,0
2023-05-19T03:03:02.198Z,0
2023-05-19T03:05:28.299Z,4
2023-05-19T03:07:54.396Z,0
2023-05-19T03:10:20.543Z,8
2023-05-19T03:12:46.579Z,8
2023-05-19T03:15:12.667Z,12
2023-05-19T03:17:38.765Z,16
2023-05-19T03:20:04.864Z,24
2023-05-19T03:22:30.988Z,32
2023-05-19T03:24:57.060Z,48
2023-05-19T03:27:23.159Z,60
2023-05-19T03:29:49.252Z,80
2023-05-19T03:32:15.354Z,108
2023-05-19T03:34:40.440Z,132
2023-05-19T03:37:06.543Z,152
2023-05-19T03:39:32.644Z,184
2023-05-19T03:41:58.777Z,216
2023-05-19T03:44:24.883Z,257
2023-05-19T03:49:17.028Z,361
2023-05-19T03:51:43.133Z,421
2023-05-19T03:54:09.208Z,493
2023-05-19T03:56:35.309Z,578
2023-05-19T03:59:01.416Z,666
2023-05-19T04:01:27.492Z,766
2023-05-19T04:03:53.605Z,875
2023-05-19T04:06:18.720Z,995
2023-05-19T04:08:44.802Z,1124
2023-05-19T04:11:10.907Z,1256
2023-05-19T04:13:36.992Z,1373
2023-05-19T04:16:03.095Z,1485
2023-05-19T04:18:29.190Z,1598
2023-05-19T04:20:55.282Z,1690
2023-05-19T04:23:21.398Z,1782
2023-05-19T04:25:47.480Z,1871
2023-05-19T04:28:13.557Z,1975
2023-05-19T04:30:39.695Z,2056
2023-05-19T04:33:05.757Z,2124
2023-05-19T04:35:31.849Z,2180
2023-05-19T04:37:57.944Z,2236
2023-05-19T04:40:23.068Z,2292
2023-05-19T04:42:49.154Z,2397
2023-05-19T04:45:15.245Z,2586
2023-05-19T04:47:41.358Z,2810
2023-05-19T04:50:07.499Z,3051
2023-05-19T04:52:33.535Z,3304
2023-05-19T04:54:59.615Z,3618
2023-05-19T04:57:25.722Z,3786
2023-05-19T04:59:51.808Z,3935
2023-05-19T05:02:17.900Z,4264
2023-05-19T05:04:43.991Z,4601
2023-05-19T05:07:10.074Z,4871
2023-05-19T05:09:36.205Z,5140
2023-05-19T05:12:02.409Z,5264
2023-05-19T05:14:28.520Z,5304
2023-05-19T05:16:54.602Z,5417
2023-05-19T05:19:20.681Z,5441
2023-05-19T05:21:46.778Z,5429
2023-05-19T05:24:12.884Z,5268
2023-05-19T05:26:38.981Z,5240
2023-05-19T05:29:05.066Z,5184
2023-05-19T05:31:31.160Z,5103
2023-05-19T05:33:57.246Z,5031
2023-05-19T05:36:23.354Z,4959
2023-05-19T05:38:49.448Z,4911
2023-05-19T05:41:15.556Z,4931
2023-05-19T05:43:41.634Z,5031
2023-05-19T05:46:06.782Z,5124
2023-05-19T05:48:32.836Z,5216
2023-05-19T05:50:58.928Z,5276
2023-05-19T05:53:25.118Z,5364
2023-05-19T05:55:51.137Z,5425
2023-05-19T05:58:17.235Z,5501
2023-05-19T06:00:43.323Z,5501
2023-05-19T06:03:09.451Z,5393
2023-05-19T06:05:35.516Z,5296
2023-05-19T06:08:01.596Z,5224
2023-05-19T06:10:27.782Z,5115
2023-05-19T06:12:53.791Z,5453
2023-05-19T06:15:19.920Z,5441
2023-05-19T06:17:45.002Z,5521
2023-05-19T06:20:11.097Z,5344
2023-05-19T06:22:37.203Z,4710
2023-05-19T06:25:03.281Z,4437
2023-05-19T06:27:29.429Z,4316
2023-05-19T06:29:55.470Z,4533
2023-05-19T06:32:21.594Z,5790
2023-05-19T06:34:47.661Z,7573
2023-05-19T06:37:13.752Z,8432
2023-05-19T06:39:39.850Z,9452
2023-05-19T06:42:05.948Z,10235
2023-05-19T06:44:32.048Z,10344
2023-05-19T06:46:58.131Z,10211
2023-05-19T06:49:23.271Z,10456
2023-05-19T06:51:49.356Z,11292
2023-05-19T06:54:15.447Z,12014
2023-05-19T06:56:41.548Z,12577
2023-05-19T06:59:07.638Z,12621
2023-05-19T07:01:33.725Z,12316
2023-05-19T07:03:59.865Z,12235
2023-05-19T07:06:25.919Z,12006
2023-05-19T07:08:52.009Z,12227
2023-05-19T07:11:18.101Z,12802
2023-05-19T07:13:44.192Z,12516
2023-05-19T07:16:10.330Z,12348
2023-05-19T07:18:36.404Z,10529
2023-05-19T07:21:02.509Z,12187
2023-05-19T07:23:28.605Z,9870
2023-05-19T07:25:54.748Z,8200
2023-05-19T07:28:20.871Z,8171
2023-05-19T07:30:46.860Z,8083
2023-05-19T07:33:13.044Z,8617
2023-05-19T07:35:39.170Z,8782
2023-05-19T07:38:05.242Z,8677
2023-05-19T07:40:31.253Z,8485
2023-05-19T07:42:57.383Z,8404
2023-05-19T07:45:23.547Z,7629
2023-05-19T07:47:49.532Z,7501
2023-05-19T07:50:15.672Z,7910
2023-05-19T07:52:41.748Z,8786
2023-05-19T07:55:07.811Z,10244
2023-05-19T07:57:33.972Z,13263
2023-05-19T08:00:00.014Z,14235
2023-05-19T08:02:26.112Z,13484
2023-05-19T08:04:51.211Z,12561
2023-05-19T08:07:17.350Z,11954
2023-05-19T08:09:43.447Z,11942
2023-05-19T08:12:09.502Z,12047
2023-05-19T08:14:35.642Z,11970
2023-05-19T08:17:01.705Z,12079
2023-05-19T08:19:27.798Z,11830
2023-05-19T08:21:53.942Z,12159
2023-05-19T08:24:19.970Z,12826
2023-05-19T08:26:46.061Z,13328
2023-05-19T08:29:12.207Z,13681
2023-05-19T08:31:38.268Z,13303
2023-05-19T08:34:04.350Z,12890
2023-05-19T08:36:30.499Z,13063
2023-05-19T08:38:56.546Z,13111
2023-05-19T08:41:22.755Z,12396
2023-05-19T08:43:48.727Z,12685
2023-05-19T08:46:14.947Z,14247
2023-05-19T08:48:40.933Z,15890
2023-05-19T08:51:06.999Z,16267
2023-05-19T08:53:32.277Z,16616
2023-05-19T08:55:58.375Z,17508
2023-05-19T08:58:24.380Z,17315
2023-05-19T09:00:50.382Z,15038
2023-05-19T09:03:16.643Z,13548
2023-05-19T09:05:42.730Z,13440
2023-05-19T09:08:08.863Z,14404
2023-05-19T09:10:34.888Z,15797
2023-05-19T09:13:01.044Z,16616
2023-05-19T09:15:27.089Z,15677
2023-05-19T09:17:53.226Z,16408
2023-05-19T09:20:19.136Z,18664
2023-05-19T09:22:45.333Z,20142
2023-05-19T09:25:11.488Z,19982
2023-05-19T09:27:37.573Z,18086
2023-05-19T09:30:03.636Z,16596
2023-05-19T09:32:29.633Z,15938
2023-05-19T09:34:54.913Z,15372
2023-05-19T09:37:20.071Z,16010
2023-05-19T09:39:46.167Z,17572
2023-05-19T09:42:12.106Z,18857
2023-05-19T09:44:38.363Z,20785
2023-05-19T09:47:04.418Z,20174
2023-05-19T09:49:30.333Z,18247
2023-05-19T09:51:56.615Z,18022
2023-05-19T09:54:22.659Z,17861
2023-05-19T09:56:48.654Z,16532
2023-05-19T09:59:14.880Z,17958
2023-05-19T10:01:40.945Z,18054
2023-05-19T10:04:06.891Z,17733
2023-05-19T10:06:33.191Z,15725
2023-05-19T10:08:59.252Z,17379
2023-05-19T10:11:25.349Z,18086
2023-05-19T10:13:51.478Z,21299
2023-05-19T10:16:17.480Z,16239
2023-05-19T10:18:43.652Z,10814
2023-05-19T10:21:09.824Z,9778
2023-05-19T10:23:35.796Z,11376
2023-05-19T10:26:01.913Z,11488
2023-05-19T10:28:28.019Z,9348
2023-05-19T10:30:54.104Z,8051
2023-05-19T10:33:20.144Z,7766
2023-05-19T10:35:46.268Z,8276
2023-05-19T10:38:12.490Z,9404
2023-05-19T10:40:38.488Z,11609
2023-05-19T10:43:04.552Z,10083
2023-05-19T10:45:30.666Z,8517
2023-05-19T10:47:56.790Z,7433
2023-05-19T10:50:22.865Z,8280
2023-05-19T10:52:47.996Z,11922
2023-05-19T10:55:14.120Z,12890
2023-05-19T10:57:40.108Z,11946
2023-05-19T11:00:06.259Z,12400
2023-05-19T11:02:32.352Z,13878
2023-05-19T11:04:58.353Z,12504
2023-05-19T11:07:24.486Z,11384
2023-05-19T11:09:50.632Z,11814
2023-05-19T11:12:16.643Z,11589
2023-05-19T11:14:42.815Z,13601
2023-05-19T11:17:08.977Z,14761
2023-05-19T11:19:35.061Z,12757
2023-05-19T11:22:01.091Z,11537
2023-05-19T11:24:26.164Z,12380
2023-05-19T11:26:52.154Z,14267
2023-05-19T11:29:18.396Z,14372
2023-05-19T11:31:44.428Z,12918
2023-05-19T11:34:10.469Z,11396
2023-05-19T11:36:36.575Z,12063
2023-05-19T11:39:02.876Z,11135
2023-05-19T11:41:28.726Z,10749
2023-05-19T11:43:54.960Z,11031
2023-05-19T11:46:21.074Z,9203
2023-05-19T11:48:47.013Z,7798
2023-05-19T11:51:13.187Z,9139
2023-05-19T11:53:39.386Z,9966
2023-05-19T11:56:04.453Z,10581
2023-05-19T11:58:30.608Z,10480
2023-05-19T12:00:56.702Z,10079
2023-05-19T12:03:22.823Z,10549
2023-05-19T12:05:48.872Z,10561
2023-05-19T12:08:15.087Z,11444
2023-05-19T12:10:41.127Z,12103
2023-05-19T12:13:07.069Z,12593
2023-05-19T12:15:33.231Z,13597
2023-05-19T12:17:59.176Z,15215
2023-05-19T12:20:25.269Z,16259
2023-05-19T12:22:51.520Z,16845
2023-05-19T12:25:29.013Z,16131
2023-05-19T12:27:43.747Z,14854
2023-05-19T12:30:08.650Z,13761
2023-05-19T12:32:34.776Z,13817
2023-05-19T12:35:00.906Z,13773
2023-05-19T12:37:26.947Z,12954
2023-05-19T12:39:53.189Z,10898
2023-05-19T12:42:19.158Z,8296
2023-05-19T12:44:45.358Z,7621
2023-05-19T12:47:11.449Z,8091
2023-05-19T12:49:37.571Z,10770
2023-05-19T12:52:03.574Z,11336
2023-05-19T12:54:29.812Z,12814
2023-05-19T12:56:55.831Z,13938
2023-05-19T12:59:21.957Z,13761
2023-05-19T13:01:47.084Z,13886
2023-05-19T13:04:12.991Z,13797
2023-05-19T13:06:39.099Z,14356
2023-05-19T13:09:05.202Z,15006
2023-05-19T13:11:31.288Z,15396
2023-05-19T13:13:57.379Z,14970
2023-05-19T13:16:23.484Z,14797
2023-05-19T13:18:49.619Z,13392
2023-05-19T13:21:15.683Z,11428
2023-05-19T13:23:41.907Z,11292
2023-05-19T13:26:07.946Z,10874
2023-05-19T13:28:34.164Z,10352
2023-05-19T13:31:00.039Z,9754
2023-05-19T13:33:25.157Z,11280
2023-05-19T13:35:51.405Z,12520
2023-05-19T13:38:17.619Z,12540
2023-05-19T13:40:43.600Z,12830
2023-05-19T13:43:09.716Z,13030
2023-05-19T13:45:35.873Z,13745
2023-05-19T13:48:01.736Z,14287
2023-05-19T13:50:27.986Z,15102
2023-05-19T13:52:54.086Z,15054
2023-05-19T13:55:20.121Z,12460
2023-05-19T13:57:46.093Z,10669
2023-05-19T14:00:12.355Z,9637
2023-05-19T14:02:38.487Z,9641
2023-05-19T14:05:03.567Z,10015
2023-05-19T14:07:29.676Z,10521
2023-05-19T14:09:55.755Z,11460
2023-05-19T14:12:21.838Z,10970
2023-05-19T14:14:47.890Z,7926
2023-05-19T14:17:13.915Z,6292
2023-05-19T14:19:40.221Z,5469
2023-05-19T14:22:06.063Z,5629
2023-05-19T14:24:32.167Z,6232
2023-05-19T14:26:58.361Z,5802
2023-05-19T14:29:24.352Z,5646
2023-05-19T14:31:50.466Z,6348
2023-05-19T14:34:16.702Z,7441
2023-05-19T14:36:41.788Z,8151
2023-05-19T14:39:07.858Z,8557
2023-05-19T14:41:34.078Z,8774
2023-05-19T14:44:00.074Z,8328
2023-05-19T14:46:26.053Z,8533
2023-05-19T14:48:52.289Z,7718
2023-05-19T14:51:18.392Z,6987
2023-05-19T14:53:44.478Z,6617
2023-05-19T14:56:10.426Z,6682
2023-05-19T14:58:36.633Z,6927
2023-05-19T15:01:02.770Z,7095
2023-05-19T15:03:28.823Z,7549
2023-05-19T15:05:54.940Z,7569
2023-05-19T15:08:20.066Z,7625
2023-05-19T15:10:46.154Z,8023
2023-05-19T15:13:12.231Z,8453
2023-05-19T15:15:38.356Z,8296
2023-05-19T15:18:04.426Z,8870
2023-05-19T15:20:30.430Z,9758
2023-05-19T15:22:56.555Z,9565
2023-05-19T15:25:22.716Z,9521
2023-05-19T15:27:48.719Z,9553
2023-05-19T15:30:14.914Z,9633
2023-05-19T15:32:40.836Z,10095
2023-05-19T15:35:07.034Z,9641
2023-05-19T15:37:33.226Z,11023
2023-05-19T15:39:58.335Z,11284
2023-05-19T15:42:24.475Z,10982
2023-05-19T15:47:16.622Z,12030
2023-05-19T15:49:42.682Z,13416
2023-05-19T15:52:08.666Z,12926
2023-05-19T15:54:34.709Z,11850
2023-05-19T15:57:00.809Z,11717
2023-05-19T15:59:27.093Z,14078
2023-05-19T16:01:53.222Z,14536
2023-05-19T16:04:19.194Z,15829
2023-05-19T16:06:45.392Z,18568
2023-05-19T16:09:11.271Z,23162
2023-05-19T16:11:36.491Z,21106
2023-05-19T16:14:02.640Z,30005
2023-05-19T16:16:28.705Z,21973
2023-05-19T16:18:54.663Z,17122
2023-05-19T16:21:20.891Z,15725
2023-05-19T16:23:46.861Z,15295
2023-05-19T16:26:12.955Z,18343
2023-05-19T16:28:39.168Z,19532
2023-05-19T16:31:05.328Z,21491
2023-05-19T16:33:31.411Z,33153
2023-05-19T16:35:57.340Z,14255
2023-05-19T16:38:23.657Z,34567
2023-05-19T16:40:49.671Z,36141
2023-05-19T16:43:14.883Z,36398
2023-05-19T16:45:40.825Z,35787
2023-05-19T16:48:07.000Z,34952
2023-05-19T16:50:32.918Z,35659
2023-05-19T16:52:59.202Z,35980
2023-05-19T16:55:25.115Z,34406
2023-05-19T16:57:51.230Z,21620
2023-05-19T17:00:17.299Z,8059
2023-05-19T17:02:43.402Z,6625
2023-05-19T17:05:09.491Z,7457
2023-05-19T17:07:35.582Z,9087
2023-05-19T17:10:01.679Z,6633
2023-05-19T17:12:27.779Z,6489
2023-05-19T17:14:52.893Z,6983
2023-05-19T17:17:18.983Z,8404
2023-05-19T17:19:45.083Z,8613
2023-05-19T17:22:11.195Z,8424
2023-05-19T17:24:37.290Z,7862
2023-05-19T17:27:03.459Z,7300
2023-05-19T17:29:29.446Z,6489
2023-05-19T17:31:55.676Z,5802
2023-05-19T17:34:21.794Z,5465
2023-05-19T17:36:47.900Z,5055
2023-05-19T17:39:13.965Z,4585
2023-05-19T17:41:40.196Z,4425
2023-05-19T17:44:06.250Z,4690
2023-05-19T17:46:31.346Z,4593
2023-05-19T17:48:57.286Z,4348
2023-05-19T17:51:23.381Z,4035
2023-05-19T17:53:49.412Z,3742
2023-05-19T17:56:15.649Z,3646
2023-05-19T17:58:41.809Z,3722
2023-05-19T18:01:07.937Z,4104
2023-05-19T18:03:33.815Z,3959
2023-05-19T18:06:00.061Z,3232
2023-05-19T18:08:26.133Z,2746
2023-05-19T18:10:52.317Z,2798
2023-05-19T18:13:18.261Z,2879
2023-05-19T18:15:44.405Z,2658
2023-05-19T18:18:09.577Z,2341
2023-05-19T18:20:35.683Z,2096
2023-05-19T18:23:01.567Z,1983
2023-05-19T18:32:46.195Z,1638
2023-05-19T18:35:12.409Z,1260
2023-05-19T18:37:37.472Z,1160
2023-05-19T18:40:03.579Z,1024
2023-05-19T18:42:29.660Z,867
2023-05-19T18:44:55.701Z,758
2023-05-19T18:47:21.826Z,678
2023-05-19T18:49:47.969Z,602
2023-05-19T18:52:13.904Z,489
2023-05-19T18:54:40.132Z,357
2023-05-19T18:57:06.147Z,273
2023-05-19T18:59:32.516Z,228
2023-05-19T19:01:57.606Z,184
2023-05-19T19:04:23.706Z,148
2023-05-19T19:06:49.804Z,124
2023-05-19T19:09:15.704Z,100
2023-05-19T19:11:41.803Z,76
2023-05-19T19:14:08.107Z,56
2023-05-19T19:16:34.171Z,40
2023-05-19T19:19:00.152Z,28
2023-05-19T19:21:26.290Z,20
2023-05-19T19:23:52.343Z,12
2023-05-19T19:26:18.516Z,8
2023-05-19T19:28:44.466Z,8
2023-05-19T19:31:10.807Z,4
2023-05-19T19:33:36.854Z,0
2023-05-19T19:36:02.872Z,4
2023-05-19T19:38:29.074Z,0
2023-05-19T19:40:55.118Z,0
2023-05-19T19:43:21.162Z,0
2023-05-19T19:45:47.384Z,0
2023-05-19T19:48:13.546Z,0
2023-05-19T19:50:39.614Z,0
2023-05-19T19:53:05.738Z,0
2023-05-19T19:55:31.829Z,0
2023-05-19T19:57:57.831Z,0
2023-05-19T20:00:23.816Z,0
2023-05-19T20:02:49.998Z,0
2023-05-19T20:05:15.040Z,0
2023-05-19T20:07:41.384Z,0
2023-05-19T20:10:07.342Z,0
2023-05-19T20:12:33.453Z,0
2023-05-19T20:14:59.619Z,0
2023-05-19T20:17:25.725Z,0
2023-05-19T20:19:51.618Z,0
2023-05-19T20:22:17.884Z,0
2023-05-19T20:24:43.982Z,0
2023-05-19T20:27:09.887Z,0
2023-05-19T20:29:36.088Z,0
2023-05-19T20:32:02.082Z,0
2023-05-19T20:34:28.243Z,0
2023-05-19T20:36:54.426Z,0
2023-05-19T20:39:20.598Z,0
2023-05-19T20:41:46.733Z,0
2023-05-19T20:44:12.814Z,0
2023-05-19T20:46:38.876Z,0
2023-05-19T20:49:05.043Z,0
2023-05-19T20:51:30.951Z,0
2023-05-19T20:53:57.061Z,0
2023-05-19T20:56:23.155Z,0
2023-05-19T20:58:49.262Z,0
2023-05-19T21:01:15.351Z,0
2023-05-19T21:03:41.442Z,0
2023-05-19T21:06:07.528Z,0
2023-05-19T21:08:32.643Z,0
2023-05-19T21:10:58.836Z,0
2023-05-19T21:13:24.857Z,0
2023-05-19T21:15:51.010Z,0
2023-05-19T21:18:17.061Z,0
2023-05-19T21:20:43.316Z,0
2023-05-19T21:23:09.409Z,0
2023-05-19T21:25:35.372Z,0
2023-05-19T21:28:01.515Z,0
2023-05-19T21:30:27.647Z,0
2023-05-19T21:32:53.749Z,0
2023-05-19T21:35:19.878Z,0
2023-05-19T21:37:45.773Z,0
2023-05-19T21:40:11.110Z,0
2023-05-19T21:42:37.166Z,0
2023-05-19T21:45:03.174Z,0
2023-05-19T21:47:29.346Z,0
2023-05-19T21:49:55.489Z,0
2023-05-19T21:52:21.537Z,0
2023-05-19T21:54:47.598Z,0
2023-05-19T21:57:13.680Z,0
2023-05-19T21:59:39.767Z,0
2023-05-19T22:02:05.814Z,0
2023-05-19T22:06:58.101Z,0
2023-05-19T22:09:24.223Z,0
2023-05-19T22:11:49.296Z,0
2023-05-19T22:14:15.395Z,0
2023-05-19T22:16:41.523Z,0
2023-05-19T22:19:07.419Z,0
2023-05-19T22:21:33.505Z,0
2023-05-19T22:23:59.694Z,0
2023-05-19T22:26:25.892Z,0
2023-05-19T22:28:52.021Z,0
2023-05-19T22:31:18.066Z,0
2023-05-19T22:33:44.026Z,0
2023-05-19T22:36:10.212Z,0
2023-05-19T22:38:36.364Z,0
2023-05-19T22:41:02.278Z,0
2023-05-19T22:43:27.387Z,0
2023-05-19T22:45:53.623Z,0
2023-05-19T22:48:19.709Z,0
2023-05-19T22:50:45.867Z,0
2023-05-19T22:53:11.859Z,0
2023-05-19T22:55:37.878Z,0
2023-05-19T22:58:04.031Z,0
2023-05-19T23:00:30.230Z,0
2023-05-19T23:02:56.167Z,0
2023-05-19T23:05:22.241Z,0
2023-05-19T23:07:48.492Z,0
2023-05-19T23:10:14.426Z,0
2023-05-19T23:12:40.660Z,0
2023-05-19T23:15:05.836Z,0
2023-05-19T23:17:31.911Z,0
2023-05-19T23:19:58.022Z,0
2023-05-19T23:22:24.037Z,0
2023-05-19T23:24:50.221Z,0
2023-05-19T23:27:16.117Z,0
2023-05-19T23:29:42.373Z,0
2023-05-19T23:32:08.316Z,0
2023-05-19T23:34:34.425Z,0
2023-05-19T23:37:00.722Z,0
2023-05-19T23:39:26.689Z,0
2023-05-19T23:41:52.854Z,0
2023-05-19T23:44:18.948Z,0
2023-05-19T23:46:43.949Z,0
2023-05-19T23:49:10.104Z,0
2023-05-19T23:51:36.245Z,0
2023-05-19T23:54:02.233Z,0
2023-05-19T23:56:28.508Z,0
2023-05-19T23:58:54.366Z,0
